Time;durP1;ratioP1;P1;durP2;ratioP2;P2;SDS_P1;SDS_P2;PMS_P1;PMS_P2;Temp;Humidity;BMP_temperature;BMP_pressure;BME280_temperature;BME280_humidity;BME280_pressure;Samples;Min_cycle;Max_cycle;Signal;HPM_P1;HPM_P2
2021/03/09 00:00:37;;;;;;;22.45;16.83;;;;;;;17.29;12.50;94441.53;5109834;28;20426;-53
2021/03/09 00:03:04;;;;;;;18.80;12.55;;;;;;;17.68;12.64;94427.75;5097812;28;20055;-46
2021/03/09 00:05:31;;;;;;;19.88;12.98;;;;;;;17.08;13.43;94431.78;5117198;28;20563;-45
2021/03/09 00:07:59;;;;;;;23.52;13.90;;;;;;;17.36;13.79;94418.75;5118418;28;20043;-50
2021/03/09 00:10:26;;;;;;;22.17;15.82;;;;;;;16.85;13.97;94431.34;5100222;28;20052;-48
2021/03/09 00:12:53;;;;;;;20.50;14.95;;;;;;;17.05;13.73;94437.72;5118050;28;20062;-46
2021/03/09 00:15:20;;;;;;;19.05;13.20;;;;;;;16.79;13.72;94443.22;5117870;28;20047;-45
2021/03/09 00:17:47;;;;;;;19.05;12.73;;;;;;;16.94;13.78;94447.13;5118104;28;20043;-45
2021/03/09 00:20:15;;;;;;;15.65;12.18;;;;;;;16.18;14.81;94447.31;5110689;28;20055;-46
2021/03/09 00:22:42;;;;;;;14.60;11.40;;;;;;;16.13;14.64;94450.13;5116346;27;20051;-47
2021/03/09 00:25:10;;;;;;;17.58;13.80;;;;;;;16.01;14.98;94443.66;5116801;28;20051;-47
2021/03/09 00:27:37;;;;;;;18.88;13.02;;;;;;;15.77;15.41;94454.00;5114517;28;20051;-45
2021/03/09 00:30:05;;;;;;;20.20;14.27;;;;;;;16.05;15.10;94454.34;5097475;28;20047;-47
2021/03/09 00:32:32;;;;;;;16.63;13.07;;;;;;;15.98;15.23;94449.59;5097555;28;20358;-47
2021/03/09 00:34:59;;;;;;;19.20;13.65;;;;;;;15.39;15.90;94454.72;5110884;28;20052;-46
2021/03/09 00:37:26;;;;;;;21.02;15.25;;;;;;;15.35;16.15;94453.81;5117713;28;20445;-45
2021/03/09 00:39:53;;;;;;;33.60;22.40;;;;;;;15.58;16.09;94456.22;5107826;28;20044;-47
2021/03/09 00:42:21;;;;;;;29.35;18.50;;;;;;;15.57;15.49;94462.56;5097066;28;20446;-46
2021/03/09 00:44:49;;;;;;;24.27;17.48;;;;;;;15.46;16.28;94458.72;5108895;28;20086;-47
2021/03/09 00:47:16;;;;;;;27.23;18.65;;;;;;;15.53;15.79;94449.25;5117410;28;20389;-49
2021/03/09 00:49:43;;;;;;;35.22;21.38;;;;;;;15.63;15.74;94453.44;5114164;28;20068;-46
2021/03/09 00:52:10;;;;;;;27.65;19.40;;;;;;;15.44;15.77;94456.41;5098882;28;20371;-52
2021/03/09 00:54:38;;;;;;;25.73;19.85;;;;;;;15.46;15.59;94453.47;5117102;28;20484;-45
2021/03/09 00:57:05;;;;;;;30.05;20.80;;;;;;;15.52;15.49;94449.56;5117201;28;20441;-47
2021/03/09 00:59:32;;;;;;;28.05;19.48;;;;;;;15.66;15.80;94453.59;5117348;28;20055;-50
2021/03/09 01:01:59;;;;;;;27.90;21.13;;;;;;;15.53;15.89;94449.25;5117128;28;20051;-46
2021/03/09 01:04:27;;;;;;;23.83;16.55;;;;;;;15.75;15.48;94456.19;5116893;28;20047;-48
2021/03/09 01:06:54;;;;;;;26.10;17.92;;;;;;;15.68;15.53;94442.72;5116840;28;20044;-49
2021/03/09 01:09:21;;;;;;;33.03;20.15;;;;;;;16.03;15.13;94452.03;5116878;28;20048;-46
2021/03/09 01:11:48;;;;;;;31.15;20.08;;;;;;;15.89;14.97;94446.22;5098972;28;20374;-51
2021/03/09 01:14:15;;;;;;;35.47;23.42;;;;;;;16.23;14.75;94447.13;5098688;28;20047;-48
2021/03/09 01:16:42;;;;;;;37.67;24.95;;;;;;;16.20;14.81;94447.78;5116852;28;20047;-48
2021/03/09 01:19:09;;;;;;;34.53;24.10;;;;;;;16.35;14.61;94447.19;5116935;28;20052;-47
2021/03/09 01:21:36;;;;;;;31.35;23.48;;;;;;;16.30;14.52;94447.41;5116192;28;20457;-47
2021/03/09 01:24:04;;;;;;;31.95;22.52;;;;;;;16.48;14.54;94446.19;5118944;27;20047;-48
2021/03/09 01:26:31;;;;;;;33.92;22.85;;;;;;;15.92;15.13;94450.09;5116721;28;20054;-47
2021/03/09 01:28:58;;;;;;;29.40;20.52;;;;;;;15.83;15.60;94450.09;5116734;28;20047;-50
2021/03/09 01:31:25;;;;;;;29.98;20.70;;;;;;;15.69;15.82;94445.06;5116623;28;20055;-47
2021/03/09 01:33:52;;;;;;;32.25;21.63;;;;;;;15.54;15.98;94445.53;5118944;27;20051;-46
2021/03/09 01:36:20;;;;;;;30.20;21.67;;;;;;;15.69;15.24;94452.19;5136862;27;20496;-46
2021/03/09 01:38:47;;;;;;;33.42;21.73;;;;;;;15.62;16.05;94451.91;5137087;27;20053;-46
2021/03/09 01:41:14;;;;;;;28.70;20.42;;;;;;;15.59;16.23;94452.50;5137053;27;20043;-45
2021/03/09 01:43:41;;;;;;;27.77;19.42;;;;;;;15.75;16.27;94455.41;5136618;27;20043;-45
2021/03/09 01:46:08;;;;;;;28.60;18.95;;;;;;;15.39;16.69;94454.72;5136829;27;20456;-52
2021/03/09 01:48:41;;;;;;;32.40;22.25;;;;;;;15.74;15.61;94459.91;5097681;27;20059;-46
2021/03/09 01:51:09;;;;;;;30.55;22.52;;;;;;;15.90;15.18;94458.31;5078487;28;20051;-47
2021/03/09 01:53:37;;;;;;;45.03;27.08;;;;;;;16.31;15.41;94456.84;5106623;28;20040;-46
2021/03/09 01:56:04;;;;;;;47.90;30.75;;;;;;;15.48;16.80;94456.56;5095618;28;20048;-48
2021/03/09 01:58:31;;;;;;;41.85;25.00;;;;;;;15.29;16.93;94449.00;5090190;28;20047;-46
2021/03/09 02:00:58;;;;;;;49.30;31.10;;;;;;;15.08;16.97;94454.13;5115808;28;20062;-46
2021/03/09 02:03:25;;;;;;;37.17;26.98;;;;;;;15.24;16.76;94449.94;5115729;28;20050;-47
2021/03/09 02:05:53;;;;;;;43.58;29.05;;;;;;;15.19;16.74;94444.84;5115047;28;20047;-45
2021/03/09 02:08:20;;;;;;;34.25;22.30;;;;;;;15.35;16.71;94443.28;5102358;28;20074;-46
2021/03/09 02:10:48;;;;;;;34.47;22.30;;;;;;;15.21;16.74;94449.78;5077200;28;20054;-48
2021/03/09 02:13:18;;;;;;;23.90;17.15;;;;;;;15.08;17.06;94438.34;5076454;28;20335;-47
2021/03/09 02:16:41;;;;;;;32.25;21.58;;;;;;;15.36;17.26;94444.81;5112463;28;20040;-46
2021/03/09 02:19:38;;;;;;;30.73;21.65;;;;;;;15.38;17.15;94440.00;5032897;28;20185;-46
2021/03/09 02:22:28;;;;;;;32.13;22.20;;;;;;;15.13;17.30;94443.47;5096748;28;20047;-46
2021/03/09 02:25:03;;;;;;;38.05;24.60;;;;;;;15.24;17.45;94441.28;5114937;28;20054;-47
2021/03/09 02:27:43;;;;;;;39.10;25.67;;;;;;;15.00;18.18;94449.66;5115302;28;20039;-46
2021/03/09 02:30:32;;;;;;;38.92;26.48;;;;;;;15.19;17.51;94449.34;5097696;28;20126;-45
2021/03/09 02:33:19;;;;;;;41.60;25.60;;;;;;;15.21;17.78;94453.19;5097615;28;20058;-46
2021/03/09 02:36:03;;;;;;;36.05;24.42;;;;;;;15.11;17.37;94459.56;5115518;28;20044;-46
2021/03/09 02:38:55;;;;;;;35.67;25.10;;;;;;;15.57;17.08;94449.38;5064355;28;20074;-46
2021/03/09 02:41:23;;;;;;;38.58;25.65;;;;;;;15.14;17.43;94462.66;5097653;28;20043;-50
2021/03/09 02:43:53;;;;;;;36.72;25.27;;;;;;;15.28;17.07;94458.75;5097521;28;20063;-49
2021/03/09 02:46:25;;;;;;;38.00;24.48;;;;;;;15.47;17.14;94462.91;5115535;28;20055;-47
2021/03/09 02:48:53;;;;;;;36.83;23.90;;;;;;;15.37;17.01;94461.41;5127345;27;20051;-46
2021/03/09 02:51:26;;;;;;;35.20;24.73;;;;;;;14.96;17.32;94467.16;5101818;28;20047;-51
2021/03/09 02:53:56;;;;;;;39.92;24.95;;;;;;;15.14;17.16;94466.06;5084723;28;20044;-46
2021/03/09 02:56:24;;;;;;;40.53;25.33;;;;;;;14.81;17.89;94466.53;5099283;28;20047;-45
2021/03/09 02:58:54;;;;;;;35.03;25.73;;;;;;;14.99;17.36;94459.41;5111939;27;20046;-47
2021/03/09 03:01:24;;;;;;;38.20;25.52;;;;;;;14.98;17.57;94459.72;5139975;27;20055;-46
2021/03/09 03:03:53;;;;;;;36.97;23.23;;;;;;;15.38;16.88;94471.63;5122093;27;20043;-47
2021/03/09 03:06:21;;;;;;;37.03;24.08;;;;;;;14.93;18.07;94463.28;5121986;27;20039;-47
2021/03/09 03:08:48;;;;;;;40.10;26.27;;;;;;;15.11;17.28;94464.84;5133721;27;20048;-47
2021/03/09 03:11:16;;;;;;;35.65;23.88;;;;;;;15.25;16.94;94467.28;5113059;28;20048;-47
2021/03/09 03:13:43;;;;;;;35.28;23.70;;;;;;;14.88;17.19;94463.47;5080697;28;20050;-47
2021/03/09 03:16:12;;;;;;;33.22;23.00;;;;;;;14.70;17.54;94465.31;5098801;28;20040;-45
2021/03/09 03:18:41;;;;;;;37.70;22.83;;;;;;;15.21;17.03;94468.22;5102542;28;20058;-46
2021/03/09 03:21:11;;;;;;;33.58;22.95;;;;;;;15.11;17.70;94474.59;5101352;28;20469;-46
2021/03/09 03:23:39;;;;;;;36.85;24.23;;;;;;;15.40;17.57;94474.72;5100886;28;20055;-51
2021/03/09 03:26:09;;;;;;;34.63;23.20;;;;;;;15.11;17.29;94464.06;5101145;28;20039;-45
2021/03/09 03:28:39;;;;;;;35.85;22.80;;;;;;;15.31;17.17;94473.94;5118277;28;20055;-47
2021/03/09 03:31:07;;;;;;;34.75;23.88;;;;;;;15.18;17.62;94474.91;5098226;28;20047;-47
2021/03/09 03:33:34;;;;;;;34.53;24.00;;;;;;;14.50;18.48;94471.94;5118872;28;20044;-47
2021/03/09 03:36:05;;;;;;;31.98;21.52;;;;;;;14.81;17.88;94469.16;5100937;28;20441;-45
2021/03/09 03:38:37;;;;;;;34.20;23.13;;;;;;;14.88;17.94;94479.25;5118973;28;20051;-45
2021/03/09 03:41:05;;;;;;;35.67;22.77;;;;;;;14.80;18.04;94478.16;5109345;27;20052;-51
2021/03/09 03:43:33;;;;;;;38.55;23.90;;;;;;;14.69;18.15;94484.03;5098246;28;20056;-48
2021/03/09 03:46:00;;;;;;;59.22;25.98;;;;;;;14.31;19.00;94489.03;5098230;28;20052;-47
2021/03/09 03:48:33;;;;;;;43.60;23.77;;;;;;;14.81;18.34;94487.59;5098239;28;20491;-47
2021/03/09 03:51:02;;;;;;;45.95;23.15;;;;;;;14.59;19.60;94492.25;5088949;28;20048;-47
2021/03/09 03:53:48;;;;;;;34.63;23.65;;;;;;;14.40;18.66;94482.72;5118383;28;20048;-46
2021/03/09 03:56:21;;;;;;;30.90;21.60;;;;;;;14.67;18.11;94481.72;5118647;28;20039;-48
2021/03/09 03:58:57;;;;;;;;;;;;;;;15.18;17.62;94482.03;5118673;28;20048;-47
2021/03/09 04:01:25;;;;;;;41.88;25.45;;;;;;;14.68;17.85;94485.88;5091589;28;19912;-50
2021/03/09 04:03:54;;;;;;;30.85;19.83;;;;;;;14.91;17.68;94480.50;5100611;28;20051;-46
2021/03/09 04:06:26;;;;;;;29.38;20.92;;;;;;;15.01;17.59;94485.44;5118327;28;20454;-55
2021/03/09 04:08:59;;;;;;;31.33;19.70;;;;;;;15.06;17.30;94487.91;5118239;28;20050;-46
2021/03/09 04:11:26;;;;;;;30.05;19.40;;;;;;;15.01;17.38;94480.16;5099931;28;20078;-46
2021/03/09 04:13:53;;;;;;;28.63;19.98;;;;;;;15.33;17.32;94490.19;5118142;28;20047;-49
2021/03/09 04:16:21;;;;;;;29.42;18.75;;;;;;;15.30;17.23;94493.47;5118031;28;20050;-46
2021/03/09 04:18:49;;;;;;;22.20;16.88;;;;;;;15.31;16.96;94494.22;5099938;28;20054;-48
2021/03/09 04:21:16;;;;;;;27.90;18.88;;;;;;;15.25;17.58;94491.00;5099565;28;20047;-47
2021/03/09 04:23:44;;;;;;;23.77;17.08;;;;;;;15.47;17.28;94497.16;5099801;28;20043;-47
2021/03/09 04:26:11;;;;;;;29.85;21.02;;;;;;;15.03;19.04;94493.78;5099899;28;20058;-47
2021/03/09 04:28:40;;;;;;;28.40;19.92;;;;;;;14.99;18.86;94503.41;5099847;28;20047;-47
2021/03/09 04:31:07;;;;;;;31.15;20.58;;;;;;;14.56;19.73;94508.59;5117740;28;20043;-47
2021/03/09 04:33:35;;;;;;;29.77;20.15;;;;;;;14.88;19.17;94507.44;5099810;28;20051;-46
2021/03/09 04:36:02;;;;;;;28.90;19.90;;;;;;;14.65;19.23;94504.94;5099919;28;20047;-48
2021/03/09 04:38:30;;;;;;;30.88;18.90;;;;;;;14.75;18.32;94499.34;5083052;28;20046;-47
2021/03/09 04:40:58;;;;;;;38.40;21.73;;;;;;;14.62;19.00;94502.91;5116167;28;20047;-47
2021/03/09 04:43:26;;;;;;;32.10;20.38;;;;;;;14.85;19.43;94497.53;5117399;28;20051;-46
2021/03/09 04:45:57;;;;;;;34.92;21.70;;;;;;;14.96;18.90;94498.75;5117349;28;20081;-53
2021/03/09 04:48:25;;;;;;;36.53;22.30;;;;;;;14.66;19.15;94500.44;5117250;28;20047;-47
2021/03/09 04:50:58;;;;;;;37.95;22.23;;;;;;;15.03;18.68;94513.00;5099143;28;20059;-46
2021/03/09 04:53:25;;;;;;;36.03;21.63;;;;;;;15.08;18.99;94519.97;5088974;28;20054;-46
2021/03/09 04:55:52;;;;;;;33.90;21.85;;;;;;;14.61;19.26;94514.53;5079063;28;20040;-47
2021/03/09 04:58:19;;;;;;;35.42;21.88;;;;;;;14.78;18.93;94506.63;5078981;28;20059;-46
2021/03/09 05:00:46;;;;;;;32.85;22.38;;;;;;;14.57;19.63;94507.53;5101024;28;20054;-45
2021/03/09 05:03:13;;;;;;;34.30;22.27;;;;;;;14.73;18.79;94506.78;5117031;28;20039;-51
2021/03/09 05:05:40;;;;;;;32.20;21.85;;;;;;;14.45;19.15;94506.28;5117148;28;20050;-47
2021/03/09 05:08:08;;;;;;;51.72;27.08;;;;;;;14.30;19.31;94514.56;5117054;28;20051;-49
2021/03/09 05:10:35;;;;;;;43.85;29.77;;;;;;;14.43;18.82;94507.66;5115870;28;20043;-54
2021/03/09 05:13:02;;;;;;;38.20;27.30;;;;;;;14.74;18.61;94503.06;5107324;28;20048;-48
2021/03/09 05:15:29;;;;;;;42.83;29.77;;;;;;;14.80;18.28;94507.09;5078997;28;20450;-50
2021/03/09 05:17:57;;;;;;;50.88;31.25;;;;;;;14.66;19.79;94508.34;5096839;28;20055;-46
2021/03/09 05:20:24;;;;;;;45.55;29.85;;;;;;;14.80;19.26;94512.34;5096451;28;20074;-53
2021/03/09 05:22:51;;;;;;;52.80;32.22;;;;;;;15.65;18.42;94514.53;5104898;28;20043;-50
2021/03/09 05:25:19;;;;;;;52.80;35.15;;;;;;;15.42;18.69;94514.69;5116909;28;20449;-53
2021/03/09 05:27:47;;;;;;;54.30;37.65;;;;;;;15.46;18.40;94514.06;5116679;28;20449;-44
2021/03/09 05:30:16;;;;;;;49.97;33.00;;;;;;;15.65;18.09;94522.44;5098950;28;20434;-52
2021/03/09 05:32:45;;;;;;;46.35;34.33;;;;;;;16.22;17.93;94516.81;5115160;28;20040;-40
2021/03/09 05:35:13;;;;;;;48.47;35.20;;;;;;;16.09;18.24;94517.78;5102362;28;20043;-48
2021/03/09 05:37:41;;;;;;;48.25;31.77;;;;;;;16.03;18.01;94509.28;5095837;28;20052;-46
2021/03/09 05:40:09;;;;;;;43.78;28.75;;;;;;;16.21;17.43;94504.72;5078236;28;20043;-50
2021/03/09 05:42:36;;;;;;;39.92;26.00;;;;;;;16.03;17.61;94512.69;5088811;28;20081;-49
2021/03/09 05:45:05;;;;;;;37.72;27.42;;;;;;;16.18;17.15;94516.66;5095556;28;20126;-46
2021/03/09 05:47:36;;;;;;;37.20;26.58;;;;;;;16.49;17.17;94521.63;5095804;28;20040;-52
2021/03/09 05:50:04;;;;;;;38.95;27.25;;;;;;;16.78;17.45;94523.50;5095278;28;20067;-46
2021/03/09 05:52:34;;;;;;;43.55;27.27;;;;;;;16.37;17.42;94518.13;5100514;28;20050;-46
2021/03/09 05:55:01;;;;;;;40.38;27.27;;;;;;;16.68;17.65;94523.13;5098339;28;20054;-47
2021/03/09 05:57:31;;;;;;;37.97;26.50;;;;;;;16.73;17.28;94512.38;5116158;28;20048;-47
2021/03/09 05:59:58;;;;;;;43.20;26.10;;;;;;;16.96;17.18;94526.81;5103356;28;20044;-46
2021/03/09 06:02:25;;;;;;;38.33;26.67;;;;;;;17.15;17.46;94516.53;5099545;28;20370;-46
2021/03/09 06:04:52;;;;;;;41.38;26.02;;;;;;;17.38;17.06;94510.91;5116025;28;20043;-53
2021/03/09 06:07:20;;;;;;;37.28;26.13;;;;;;;17.36;16.48;94513.88;5079048;28;20036;-50
2021/03/09 06:09:48;;;;;;;37.33;26.85;;;;;;;17.45;16.90;94524.41;5095667;28;20454;-51
2021/03/09 06:12:18;;;;;;;39.55;27.90;;;;;;;17.61;17.19;94521.91;5097509;28;20054;-47
2021/03/09 06:15:05;;;;;;;35.03;25.38;;;;;;;17.85;16.64;94522.00;5115819;28;20048;-45
2021/03/09 06:17:37;;;;;;;36.10;24.92;;;;;;;18.22;16.40;94524.72;5115802;28;20047;-47
2021/03/09 06:20:09;;;;;;;43.90;28.55;;;;;;;18.60;16.05;94534.94;5103085;28;20059;-48
2021/03/09 06:22:50;;;;;;;41.05;29.00;;;;;;;18.46;16.07;94541.34;5107737;27;20343;-48
2021/03/09 06:25:19;;;;;;;37.15;24.63;;;;;;;18.49;16.44;94545.22;5100272;28;20451;-47
2021/03/09 06:27:47;;;;;;;34.17;23.20;;;;;;;18.31;16.13;94549.19;5095382;28;20044;-48
2021/03/09 06:30:25;;;;;;;33.83;21.70;;;;;;;18.31;15.56;94549.19;5095486;28;20363;-47
2021/03/09 06:32:52;;;;;;;29.58;21.77;;;;;;;18.24;15.75;94533.84;5090575;28;20464;-49
2021/03/09 06:35:33;;;;;;;30.23;21.23;;;;;;;17.82;16.13;94539.28;5136342;28;20046;-47
2021/03/09 06:38:25;;;;;;;32.97;20.88;;;;;;;18.19;15.95;94547.28;5136410;28;20054;-47
2021/03/09 06:41:05;;;;;;;34.90;22.60;;;;;;;18.48;15.82;94556.91;5136226;28;20346;-46
2021/03/09 06:43:33;;;;;;;35.33;22.98;;;;;;;18.47;16.38;94553.47;5122588;28;20044;-47
2021/03/09 06:46:29;;;;;;;38.28;25.13;;;;;;;18.86;15.92;94553.94;5115568;28;20058;-48
2021/03/09 06:49:02;;;;;;;35.47;23.55;;;;;;;19.17;16.06;94548.00;5091411;28;20059;-47
2021/03/09 06:51:36;;;;;;;31.58;20.27;;;;;;;19.24;16.55;94553.50;5101023;28;20366;-47
2021/03/09 06:54:05;;;;;;;37.75;19.77;;;;;;;19.37;15.58;94556.91;5115006;28;20470;-46
2021/03/09 06:56:34;;;;;;;33.00;17.90;;;;;;;19.75;15.28;94550.38;5110233;28;20398;-50
2021/03/09 06:59:24;;;;;;;29.40;17.10;;;;;;;19.68;15.13;94557.03;5094994;28;20056;-48
2021/03/09 07:02:12;;;;;;;22.48;16.10;;;;;;;19.38;15.16;94553.16;5094984;28;20066;-47
2021/03/09 07:04:42;;;;;;;20.67;14.82;;;;;;;19.64;14.78;94558.81;5095015;28;20040;-46
2021/03/09 07:07:14;;;;;;;25.02;14.88;;;;;;;19.94;15.18;94558.44;5094980;28;20044;-49
2021/03/09 07:09:57;;;;;;;16.45;13.23;;;;;;;20.43;14.47;94553.63;5095021;28;20379;-47
2021/03/09 07:12:24;;;;;;;22.40;13.77;;;;;;;20.40;14.18;94545.56;5096339;28;20059;-49
2021/03/09 07:14:52;;;;;;;17.48;12.50;;;;;;;21.12;13.60;94562.03;5109438;28;20274;-50
2021/03/09 07:17:25;;;;;;;16.75;12.38;;;;;;;21.02;13.51;94567.84;5094968;28;20044;-46
2021/03/09 07:19:52;;;;;;;;;;;;;;;21.03;13.77;94564.84;5095388;28;20370;-48
2021/03/09 07:22:21;;;;;;;16.48;13.20;;;;;;;21.13;13.35;94582.16;5097792;28;19911;-48
2021/03/09 07:24:59;;;;;;;20.42;13.77;;;;;;;20.46;13.90;94570.75;5115456;28;20051;-46
2021/03/09 07:27:48;;;;;;;19.17;13.23;;;;;;;20.68;14.02;94569.38;5115660;28;20047;-48
2021/03/09 07:30:17;;;;;;;16.00;13.20;;;;;;;20.60;13.85;94579.84;5115346;28;20050;-46
2021/03/09 07:32:49;;;;;;;19.95;13.35;;;;;;;20.70;14.78;94567.91;5115375;28;20442;-47
2021/03/09 07:35:17;;;;;;;18.45;13.45;;;;;;;21.35;14.02;94568.22;5119105;28;20054;-48
2021/03/09 07:37:44;;;;;;;22.55;16.08;;;;;;;21.33;13.72;94562.47;5114388;28;20468;-46
2021/03/09 07:40:17;;;;;;;19.23;14.70;;;;;;;21.05;13.31;94564.50;5098439;28;20046;-47
2021/03/09 07:42:44;;;;;;;;;;;;;;;20.85;13.57;94567.13;5101909;28;20043;-48
2021/03/09 07:45:35;;;;;;;20.40;16.40;;;;;;;20.69;13.62;94569.03;5118791;28;19915;-46
2021/03/09 07:48:05;;;;;;;26.73;21.77;;;;;;;20.93;14.95;94568.81;5104578;28;20043;-52
2021/03/09 07:50:35;;;;;;;32.85;26.05;;;;;;;20.69;14.15;94560.28;5100838;28;20076;-45
2021/03/09 07:53:08;;;;;;;27.20;21.13;;;;;;;20.62;14.20;94561.69;5118006;28;20054;-47
2021/03/09 07:55:36;;;;;;;;;;;;;;;20.39;14.55;94565.25;5118899;28;20044;-46
2021/03/09 07:58:21;;;;;;;28.88;21.35;;;;;;;20.60;14.57;94555.94;5118325;28;19911;-48
2021/03/09 08:01:07;;;;;;;29.13;23.10;;;;;;;20.33;14.83;94560.22;5118375;28;20040;-48
2021/03/09 08:03:34;;;;;;;28.83;22.35;;;;;;;20.68;14.08;94554.22;5118395;28;20052;-47
2021/03/09 08:06:04;;;;;;;32.20;24.50;;;;;;;20.78;14.32;94559.00;5118370;28;20047;-47
2021/03/09 08:08:41;;;;;;;30.80;22.42;;;;;;;20.75;13.75;94553.59;5118040;28;20047;-46
2021/03/09 08:11:14;;;;;;;34.22;23.95;;;;;;;20.83;14.08;94555.31;5100335;28;20502;-49
2021/03/09 08:13:42;;;;;;;34.38;26.05;;;;;;;21.01;13.72;94555.69;5118195;28;20062;-48
2021/03/09 08:16:21;;;;;;;31.70;25.15;;;;;;;20.93;14.10;94555.53;5100126;28;20047;-45
2021/03/09 08:18:52;;;;;;;30.73;23.88;;;;;;;21.27;13.52;94549.81;5111011;28;20481;-47
2021/03/09 08:21:20;;;;;;;30.85;23.70;;;;;;;21.44;13.91;94547.50;5105472;28;20044;-48
2021/03/09 08:23:47;;;;;;;33.63;23.15;;;;;;;21.49;13.89;94544.56;5099908;28;20055;-47
2021/03/09 08:26:14;;;;;;;29.25;23.30;;;;;;;21.94;13.84;94539.69;5111227;28;20044;-47
2021/03/09 08:28:42;;;;;;;30.00;22.52;;;;;;;21.45;13.56;94543.72;5103272;28;20070;-46
2021/03/09 08:31:10;;;;;;;30.50;23.40;;;;;;;21.26;13.41;94541.06;5113044;28;20043;-48
2021/03/09 08:33:37;;;;;;;29.00;22.38;;;;;;;21.30;13.31;94539.25;5117845;28;20043;-48
2021/03/09 08:36:29;;;;;;;25.52;21.23;;;;;;;21.36;13.63;94535.19;5115464;28;20054;-47
2021/03/09 08:39:03;;;;;;;27.05;21.90;;;;;;;21.93;13.44;94530.94;5097598;28;20335;-47
2021/03/09 08:41:42;;;;;;;28.15;21.77;;;;;;;21.48;12.99;94534.28;5097207;28;20255;-47
2021/03/09 08:44:16;;;;;;;25.15;20.48;;;;;;;21.92;13.69;94531.28;5096319;28;20048;-62
2021/03/09 08:47:08;;;;;;;25.23;20.55;;;;;;;21.89;13.42;94524.78;5106598;27;20040;-49
2021/03/09 08:49:39;;;;;;;25.40;20.52;;;;;;;21.73;13.33;94537.41;5117579;28;20093;-45
2021/03/09 08:52:18;;;;;;;24.45;20.58;;;;;;;21.57;13.15;94545.47;5117150;28;20054;-47
2021/03/09 08:54:50;;;;;;;27.95;20.38;;;;;;;21.45;13.12;94535.75;5116633;28;20077;-48
2021/03/09 08:57:20;;;;;;;36.35;31.45;;;;;;;21.46;13.14;94534.63;5117207;28;20433;-47
2021/03/09 08:59:49;;;;;;;29.35;22.27;;;;;;;21.60;13.10;94546.66;5117465;28;20050;-47
2021/03/09 09:02:18;;;;;;;23.40;18.90;;;;;;;21.46;12.70;94534.63;5117065;28;20058;-47
2021/03/09 09:04:59;;;;;;;21.75;17.77;;;;;;;21.43;12.69;94532.69;5116523;28;20051;-47
2021/03/09 09:07:36;;;;;;;21.10;17.38;;;;;;;21.48;12.89;94531.63;5116839;28;20050;-65
2021/03/09 09:10:19;;;;;;;20.42;16.75;;;;;;;21.11;12.79;94528.59;5117201;28;20051;-47
2021/03/09 09:12:48;;;;;;;20.40;17.23;;;;;;;21.13;12.84;94536.97;5101629;28;20399;-65
2021/03/09 09:15:23;;;;;;;25.00;18.73;;;;;;;21.34;12.71;94529.47;5078929;28;20047;-47
2021/03/09 09:18:01;;;;;;;26.35;21.00;;;;;;;21.21;12.97;94534.09;5111591;28;20040;-57
2021/03/09 09:20:40;;;;;;;23.40;18.98;;;;;;;21.33;13.16;94535.88;5116960;28;20450;-59
2021/03/09 09:23:18;;;;;;;24.42;20.20;;;;;;;21.39;13.15;94529.19;5116770;28;20051;-56
2021/03/09 09:25:46;;;;;;;26.35;20.80;;;;;;;21.46;13.14;94534.63;5116982;28;20125;-53
2021/03/09 09:28:31;;;;;;;24.50;19.65;;;;;;;21.36;12.60;94518.47;5116452;28;20043;-48
2021/03/09 09:31:10;;;;;;;26.77;20.73;;;;;;;21.56;13.27;94517.31;5116532;28;20058;-62
2021/03/09 09:33:38;;;;;;;23.05;18.50;;;;;;;21.30;13.21;94515.31;5116764;28;20039;-54
2021/03/09 09:36:05;;;;;;;28.63;19.63;;;;;;;21.38;13.34;94525.00;5103661;28;20450;-55
2021/03/09 09:38:32;;;;;;;23.83;19.40;;;;;;;21.07;12.74;94523.16;5137068;27;20050;-59
2021/03/09 09:41:01;;;;;;;26.05;20.50;;;;;;;21.06;12.89;94520.84;5136849;27;20377;-50
2021/03/09 09:43:30;;;;;;;27.08;21.58;;;;;;;21.30;13.12;94525.94;5117722;27;20044;-50
2021/03/09 09:46:06;;;;;;;27.63;20.73;;;;;;;21.54;12.59;94530.22;5096023;28;20051;-62
2021/03/09 09:48:37;;;;;;;23.65;20.15;;;;;;;21.27;12.64;94531.97;5096233;28;20698;-61
2021/03/09 09:51:12;;;;;;;24.33;19.52;;;;;;;21.14;13.60;94522.56;5095676;28;20059;-60
2021/03/09 09:53:41;;;;;;;27.80;20.98;;;;;;;21.29;12.75;94518.31;5102006;28;20055;-65
2021/03/09 09:56:17;;;;;;;25.85;22.30;;;;;;;21.34;13.34;94521.50;5095729;28;20052;-60
2021/03/09 09:58:48;;;;;;;31.98;24.08;;;;;;;21.46;13.13;94523.22;5095872;28;20052;-62
2021/03/09 10:01:36;;;;;;;29.77;23.83;;;;;;;21.58;15.18;94530.28;5095666;28;20066;-58
2021/03/09 10:04:05;;;;;;;26.42;22.35;;;;;;;21.63;14.41;94517.47;5095727;28;20343;-56
2021/03/09 10:06:47;;;;;;;25.55;21.48;;;;;;;21.66;13.54;94510.69;5098365;28;20056;-55
2021/03/09 10:09:20;;;;;;;26.33;20.80;;;;;;;21.39;13.22;94510.56;5115935;28;20051;-56
2021/03/09 10:11:58;;;;;;;27.20;20.75;;;;;;;21.68;12.92;94503.13;5115824;28;20047;-60
2021/03/09 10:14:32;;;;;;;23.80;19.95;;;;;;;21.72;13.14;94498.63;5115973;28;20393;-48
2021/03/09 10:17:00;;;;;;;27.73;20.65;;;;;;;21.74;12.51;94496.38;5115637;28;20055;-47
2021/03/09 10:19:38;;;;;;;27.63;20.38;;;;;;;21.66;12.70;94490.16;5098088;28;20044;-50
2021/03/09 10:22:26;;;;;;;31.60;25.10;;;;;;;21.46;12.89;94509.94;5115377;28;20047;-47
2021/03/09 10:25:15;;;;;;;25.48;21.75;;;;;;;21.81;12.37;94488.50;5115673;28;20047;-46
2021/03/09 10:27:43;;;;;;;25.95;20.30;;;;;;;21.60;12.44;94488.13;5115449;28;20051;-46
2021/03/09 10:30:11;;;;;;;30.48;21.02;;;;;;;21.46;12.94;94481.44;5115784;28;20043;-49
2021/03/09 10:32:51;;;;;;;23.77;19.73;;;;;;;21.72;12.63;94493.31;5115670;28;20408;-48
2021/03/09 10:35:18;;;;;;;23.90;20.55;;;;;;;21.66;12.66;94486.75;5115729;28;20050;-47
2021/03/09 10:37:45;;;;;;;26.95;19.75;;;;;;;21.71;12.73;94481.91;5115519;28;20036;-48
2021/03/09 10:40:14;;;;;;;25.17;20.75;;;;;;;21.83;12.76;94489.69;5115745;28;20047;-46
2021/03/09 10:42:47;;;;;;;46.83;38.38;;;;;;;22.04;14.20;94480.56;5115449;28;20044;-57
2021/03/09 10:45:20;;;;;;;29.40;22.80;;;;;;;21.91;12.41;94479.97;5115550;28;20058;-49
2021/03/09 10:48:00;;;;;;;24.85;20.52;;;;;;;21.89;13.05;94476.13;5115202;28;20051;-48
2021/03/09 10:50:37;;;;;;;26.15;21.17;;;;;;;21.96;12.58;94471.69;5114419;28;20517;-43
2021/03/09 10:53:04;;;;;;;26.30;20.13;;;;;;;21.89;12.48;94460.16;5112570;28;20051;-41
2021/03/09 10:55:32;;;;;;;76.93;67.65;;;;;;;21.78;13.28;94470.59;5115502;28;20063;-43
2021/03/09 10:57:59;;;;;;;31.55;22.73;;;;;;;22.54;12.26;94460.78;5114663;28;20046;-48
2021/03/09 11:00:27;;;;;;;26.10;21.77;;;;;;;22.67;12.12;94467.47;5107062;28;20051;-48
2021/03/09 11:02:54;;;;;;;27.33;23.38;;;;;;;23.15;11.73;94461.59;5101541;28;20048;-52
2021/03/09 11:05:21;;;;;;;27.48;22.33;;;;;;;22.76;12.21;94459.97;5095083;28;20039;-54
2021/03/09 11:07:48;;;;;;;45.22;30.65;;;;;;;22.58;12.03;94463.50;5096147;28;20051;-49
2021/03/09 11:10:16;;;;;;;27.85;21.55;;;;;;;22.24;12.44;94460.75;5099158;28;20056;-45
2021/03/09 11:12:43;;;;;;;36.30;22.45;;;;;;;22.18;12.63;94461.41;5098813;28;20056;-48
2021/03/09 11:15:11;;;;;;;25.67;21.23;;;;;;;22.57;12.27;94457.41;5098313;28;20047;-43
2021/03/09 11:17:38;;;;;;;28.60;23.55;;;;;;;22.15;12.48;94453.00;5108437;28;20051;-62
2021/03/09 11:20:07;;;;;;;26.48;21.35;;;;;;;22.09;12.76;94451.75;5119284;28;20054;-55
2021/03/09 11:22:34;;;;;;;30.67;22.58;;;;;;;22.27;12.33;94448.59;5118826;28;20052;-53
2021/03/09 11:25:02;;;;;;;27.75;21.90;;;;;;;22.14;12.72;94443.50;5117675;28;20051;-51
2021/03/09 11:27:29;;;;;;;30.73;23.23;;;;;;;22.22;12.45;94440.94;5106683;28;20059;-52
2021/03/09 11:29:56;;;;;;;28.42;22.73;;;;;;;22.32;12.17;94441.06;5119106;28;20036;-51
2021/03/09 11:32:23;;;;;;;29.30;23.42;;;;;;;22.25;12.03;94434.88;5118898;28;20054;-52
2021/03/09 11:34:51;;;;;;;45.10;38.63;;;;;;;22.63;12.71;94424.00;5118901;28;20043;-47
2021/03/09 11:37:18;;;;;;;30.38;22.92;;;;;;;22.31;12.41;94420.91;5106003;27;20043;-55